Time;durP1;ratioP1;P1;durP2;ratioP2;P2;SDS_P1;SDS_P2;PMS_P1;PMS_P2;Temp;Humidity;BMP_temperature;BMP_pressure;BME280_temperature;BME280_humidity;BME280_pressure;Samples;Min_cycle;Max_cycle;Signal;HPM_P1;HPM_P2
2021/06/24 00:01:13;;;;;;;10.55;8.02;;;;;;;17.99;84.63;101843.81;4896027;29;20064;-43
2021/06/24 00:03:40;;;;;;;12.30;9.93;;;;;;;17.97;84.62;101851.78;4905457;29;20058;-44
2021/06/24 00:06:08;;;;;;;11.05;8.18;;;;;;;17.97;84.71;101860.19;4891997;29;20131;-43
2021/06/24 00:08:35;;;;;;;9.95;8.48;;;;;;;17.96;84.78;101850.13;4900870;29;20057;-43
2021/06/24 00:11:04;;;;;;;7.88;7.10;;;;;;;17.97;84.82;101851.78;4898901;29;20127;-44
2021/06/24 00:13:32;;;;;;;11.38;7.80;;;;;;;17.96;84.61;101850.97;4910050;29;20138;-44
2021/06/24 00:15:59;;;;;;;9.88;8.07;;;;;;;17.95;84.81;101862.56;4897290;29;20084;-44
2021/06/24 00:18:26;;;;;;;8.80;7.32;;;;;;;17.93;84.92;101853.69;4906412;29;20052;-43
2021/06/24 00:20:53;;;;;;;10.02;7.80;;;;;;;17.92;85.05;101858.50;4907543;29;20052;-43
2021/06/24 00:23:20;;;;;;;9.70;7.90;;;;;;;17.91;85.18;101865.25;4915316;29;20044;-47
2021/06/24 00:25:47;;;;;;;10.10;8.60;;;;;;;17.89;85.57;101858.41;4902162;29;20132;-45
2021/06/24 00:28:16;;;;;;;14.65;8.73;;;;;;;17.89;85.26;101855.59;4914352;29;20138;-45
2021/06/24 00:30:48;;;;;;;10.90;7.93;;;;;;;17.87;85.48;101853.16;4911380;29;20060;-43
2021/06/24 00:33:16;;;;;;;9.35;8.10;;;;;;;17.89;85.39;101847.19;4913979;29;20111;-44
2021/06/24 00:35:44;;;;;;;10.25;8.55;;;;;;;17.88;85.31;101857.59;4903386;29;20131;-44
2021/06/24 00:38:11;;;;;;;11.73;8.88;;;;;;;17.88;85.29;101859.56;4914074;29;20072;-43
2021/06/24 00:40:39;;;;;;;10.20;8.55;;;;;;;17.88;85.34;101851.16;4896478;29;20566;-44
2021/06/24 00:43:10;;;;;;;10.45;8.10;;;;;;;17.89;85.35;101861.22;4907038;29;20050;-46
2021/06/24 00:45:38;;;;;;;11.02;8.93;;;;;;;17.89;85.43;101850.00;4908455;29;20501;-43
2021/06/24 00:48:06;;;;;;;11.02;8.75;;;;;;;17.89;85.37;101852.81;4907673;29;20052;-42
2021/06/24 00:50:35;;;;;;;10.90;8.32;;;;;;;17.88;85.30;101842.75;4909578;29;20080;-44
2021/06/24 00:53:06;;;;;;;10.10;7.75;;;;;;;17.85;85.35;101835.91;4898406;29;20123;-43
2021/06/24 00:56:06;;;;;;;12.07;8.75;;;;;;;17.83;85.32;101849.47;4911042;29;20086;-43
2021/06/24 00:58:27;;;;;;;11.55;8.43;;;;;;;17.80;85.38;101852.19;4908371;29;20136;-43
2021/06/24 01:00:56;;;;;;;11.85;8.55;;;;;;;17.76;85.40;101851.31;4903399;29;20052;-42
2021/06/24 01:03:24;;;;;;;10.32;8.55;;;;;;;17.73;85.45;101850.06;4908686;29;20108;-44
2021/06/24 01:05:51;;;;;;;12.82;9.30;;;;;;;17.69;85.49;101853.94;4911304;29;20134;-43
2021/06/24 01:08:23;;;;;;;15.23;8.07;;;;;;;17.68;85.48;101852.34;4905217;29;20119;-44
2021/06/24 01:10:50;;;;;;;;;;;;;;;17.58;85.98;101850.91;4906597;29;20112;-45
2021/06/24 01:13:17;;;;;;;10.40;7.43;;;;;;;17.53;85.44;101854.81;4907210;29;19930;-43
2021/06/24 01:15:46;;;;;;;13.68;7.20;;;;;;;17.43;85.09;101854.53;4909663;29;20058;-44
2021/06/24 01:18:13;;;;;;;14.55;6.57;;;;;;;17.36;84.69;101849.59;4914717;29;20486;-44
2021/06/24 01:20:40;;;;;;;12.57;6.72;;;;;;;17.32;84.18;101859.06;4906125;29;20482;-44
2021/06/24 01:23:07;;;;;;;12.20;6.25;;;;;;;17.28;83.67;101866.59;4906398;29;20128;-43
2021/06/24 01:25:35;;;;;;;10.98;6.32;;;;;;;17.20;83.39;101868.41;4896919;29;20131;-44
2021/06/24 01:28:08;;;;;;;13.85;6.60;;;;;;;17.12;83.00;101855.41;4911930;29;20142;-44
2021/06/24 01:30:37;;;;;;;11.82;6.50;;;;;;;17.07;82.72;101861.28;4900775;29;20124;-44
2021/06/24 01:33:05;;;;;;;16.67;7.32;;;;;;;17.03;82.40;101861.19;4911169;29;20517;-44
2021/06/24 01:35:33;;;;;;;14.55;7.13;;;;;;;16.95;82.08;101861.38;4903530;29;20083;-43
2021/06/24 01:38:04;;;;;;;12.45;7.13;;;;;;;16.85;82.05;101862.75;4914849;29;20052;-43
2021/06/24 01:40:32;;;;;;;12.88;6.90;;;;;;;16.80;81.86;101859.41;4907298;29;20051;-43
2021/06/24 01:42:59;;;;;;;16.90;7.10;;;;;;;16.76;81.39;101859.28;4897333;29;20391;-44
2021/06/24 01:45:26;;;;;;;15.93;6.78;;;;;;;16.64;81.23;101855.78;4899006;29;20791;-43
2021/06/24 01:47:54;;;;;;;16.05;6.80;;;;;;;16.51;81.00;101857.81;4906490;29;20105;-43
2021/06/24 01:50:21;;;;;;;14.90;7.75;;;;;;;16.33;81.00;101857.34;4905729;29;20048;-43
2021/06/24 01:52:49;;;;;;;15.30;7.63;;;;;;;16.21;80.44;101857.38;4903658;29;20055;-46
2021/06/24 01:55:31;;;;;;;14.63;7.90;;;;;;;16.13;80.51;101847.16;4912145;29;20040;-46
2021/06/24 01:58:04;;;;;;;19.50;7.05;;;;;;;16.07;79.92;101854.16;4917616;29;20048;-44
2021/06/24 02:00:31;;;;;;;19.63;9.00;;;;;;;15.98;79.84;101853.53;4910548;29;20050;-45
2021/06/24 02:02:59;;;;;;;12.27;7.07;;;;;;;15.92;79.82;101852.13;4916768;29;20079;-43
2021/06/24 02:05:25;;;;;;;18.88;8.88;;;;;;;15.85;79.74;101857.53;4914278;29;20104;-43
2021/06/24 02:07:52;;;;;;;21.05;7.97;;;;;;;15.83;79.49;101848.69;4910160;29;20101;-46
2021/06/24 02:10:20;;;;;;;18.50;9.00;;;;;;;15.71;79.21;101857.91;4906069;29;20135;-46
2021/06/24 02:12:47;;;;;;;13.00;7.53;;;;;;;15.56;79.27;101855.84;4891912;29;20052;-45
2021/06/24 02:15:14;;;;;;;15.82;8.18;;;;;;;15.51;79.20;101852.50;4901720;29;20446;-43
2021/06/24 02:17:41;;;;;;;20.27;8.57;;;;;;;15.44;79.33;101853.03;4912491;29;20127;-43
2021/06/24 02:20:12;;;;;;;13.38;8.52;;;;;;;15.40;79.22;101852.13;4898514;29;20075;-43
2021/06/24 02:22:39;;;;;;;14.02;7.22;;;;;;;15.36;78.88;101850.38;4912018;29;20048;-45
2021/06/24 02:25:08;;;;;;;12.48;8.32;;;;;;;15.26;79.06;101848.88;4902322;29;20064;-47
2021/06/24 02:27:34;;;;;;;15.27;7.25;;;;;;;15.25;78.86;101850.84;4900992;29;20044;-43
2021/06/24 02:30:02;;;;;;;15.10;8.82;;;;;;;15.23;78.76;101853.19;4914804;29;20052;-45
2021/06/24 02:32:29;;;;;;;19.13;8.63;;;;;;;15.25;78.61;101852.81;4909046;29;20087;-45
2021/06/24 02:34:57;;;;;;;11.05;7.60;;;;;;;15.19;78.82;101848.66;4913491;29;20070;-42
2021/06/24 02:37:24;;;;;;;12.63;7.90;;;;;;;15.19;78.71;101857.84;4910645;29;20417;-42
2021/06/24 02:39:50;;;;;;;19.73;8.00;;;;;;;15.18;78.70;101844.22;4910989;29;20443;-44
2021/06/24 02:42:17;;;;;;;12.00;7.93;;;;;;;15.19;78.34;101846.69;4908694;29;20776;-43
2021/06/24 02:44:44;;;;;;;13.27;7.40;;;;;;;15.14;78.56;101844.09;4911634;29;20139;-43
2021/06/24 02:47:11;;;;;;;13.07;7.85;;;;;;;15.09;78.54;101849.94;4916784;29;20481;-43
2021/06/24 02:49:42;;;;;;;12.40;7.20;;;;;;;15.03;78.76;101848.56;4908827;29;20056;-43
2021/06/24 02:52:09;;;;;;;15.95;8.60;;;;;;;15.00;78.41;101846.47;4914901;29;20048;-43
2021/06/24 02:54:36;;;;;;;16.05;7.93;;;;;;;14.97;78.59;101846.34;4905111;29;20446;-48
2021/06/24 02:57:04;;;;;;;14.73;8.40;;;;;;;14.97;78.57;101849.94;4913682;29;20497;-42
2021/06/24 02:59:30;;;;;;;16.98;8.63;;;;;;;14.96;78.48;101842.72;4907467;29;20040;-43
2021/06/24 03:01:57;;;;;;;18.58;7.85;;;;;;;14.94;78.59;101853.41;4913768;29;20048;-45
2021/06/24 03:04:24;;;;;;;14.38;7.40;;;;;;;14.92;78.40;101844.59;4906370;29;20047;-44
2021/06/24 03:06:52;;;;;;;14.88;7.90;;;;;;;14.94;78.28;101842.25;4905265;29;20053;-44
2021/06/24 03:09:20;;;;;;;12.07;7.47;;;;;;;14.89;78.14;101836.91;4906994;29;20498;-43
2021/06/24 03:11:47;;;;;;;14.75;7.93;;;;;;;14.86;78.21;101834.81;4911830;29;20107;-45
2021/06/24 03:14:14;;;;;;;15.48;7.65;;;;;;;14.92;78.14;101846.56;4906434;29;20481;-43
2021/06/24 03:16:42;;;;;;;15.10;7.70;;;;;;;14.93;78.15;101837.06;4909947;29;20032;-42
2021/06/24 03:19:10;;;;;;;15.77;8.45;;;;;;;14.89;78.13;101842.50;4906232;29;20052;-43
2021/06/24 03:21:37;;;;;;;13.20;8.52;;;;;;;14.90;78.02;101844.13;4910870;29;20060;-44
2021/06/24 03:24:04;;;;;;;19.08;8.10;;;;;;;14.84;77.98;101851.09;4901826;29;20044;-43
2021/06/24 03:26:31;;;;;;;15.02;8.23;;;;;;;14.81;78.06;101846.22;4908349;29;20040;-43
2021/06/24 03:28:58;;;;;;;14.70;9.02;;;;;;;14.84;78.00;101842.72;4905666;29;20136;-43
2021/06/24 03:31:25;;;;;;;17.65;8.88;;;;;;;14.83;77.88;101855.03;4908949;29;20131;-43
2021/06/24 03:33:52;;;;;;;16.23;9.18;;;;;;;14.81;77.88;101851.78;4905649;29;20044;-43
2021/06/24 03:36:20;;;;;;;14.13;9.23;;;;;;;14.72;77.94;101845.50;4904125;29;20126;-44
2021/06/24 03:38:48;;;;;;;14.00;9.70;;;;;;;14.71;78.17;101852.25;4898691;29;20558;-42
2021/06/24 03:41:23;;;;;;;19.52;9.60;;;;;;;14.69;78.04;101854.56;4909239;29;20057;-43
2021/06/24 03:43:51;;;;;;;17.35;9.55;;;;;;;14.66;78.04;101849.69;4905724;29;20049;-43
2021/06/24 03:46:19;;;;;;;22.25;11.40;;;;;;;14.62;77.91;101849.56;4908516;29;20052;-45
2021/06/24 03:48:46;;;;;;;19.40;10.90;;;;;;;14.51;78.39;101853.13;4901529;29;20421;-46
2021/06/24 03:51:14;;;;;;;17.85;11.20;;;;;;;14.45;78.35;101843.38;4906139;29;20051;-43
2021/06/24 03:53:41;;;;;;;16.77;11.18;;;;;;;14.43;78.46;101846.47;4906661;29;20520;-43
2021/06/24 03:56:09;;;;;;;19.00;11.80;;;;;;;14.37;78.48;101850.66;4908731;29;20039;-44
2021/06/24 03:58:36;;;;;;;22.30;11.70;;;;;;;14.41;78.46;101847.97;4905143;29;20554;-42
2021/06/24 04:01:03;;;;;;;20.05;11.60;;;;;;;14.43;78.24;101845.66;4912269;29;20083;-47
2021/06/24 04:03:30;;;;;;;20.55;10.95;;;;;;;14.37;78.17;101847.06;4909859;29;20052;-43
2021/06/24 04:05:57;;;;;;;21.67;12.63;;;;;;;14.33;78.10;101840.53;4911609;29;20043;-44
2021/06/24 04:08:24;;;;;;;23.98;12.32;;;;;;;14.32;78.06;101845.28;4909339;29;20067;-44
2021/06/24 04:11:02;;;;;;;24.15;10.90;;;;;;;14.26;78.04;101840.25;4909801;29;20083;-42
2021/06/24 04:13:35;;;;;;;19.65;12.05;;;;;;;14.22;78.33;101842.91;4896912;29;20044;-43
2021/06/24 04:16:02;;;;;;;17.15;11.75;;;;;;;14.26;78.24;101849.44;4902679;29;20115;-43
2021/06/24 04:18:29;;;;;;;21.17;12.32;;;;;;;14.28;78.11;101838.75;4915910;29;20048;-42
2021/06/24 04:20:56;;;;;;;18.48;12.80;;;;;;;14.29;78.09;101839.56;4909584;29;20059;-43
2021/06/24 04:23:23;;;;;;;19.63;11.73;;;;;;;14.22;78.17;101833.72;4911196;29;20056;-42
2021/06/24 04:25:50;;;;;;;19.20;12.27;;;;;;;14.17;78.35;101839.53;4904877;29;20040;-42
2021/06/24 04:28:16;;;;;;;20.40;13.00;;;;;;;14.17;78.01;101842.31;4915519;29;20076;-44
2021/06/24 04:30:43;;;;;;;24.25;12.60;;;;;;;14.09;78.15;101840.41;4908178;29;20088;-42
2021/06/24 04:33:10;;;;;;;33.13;16.67;;;;;;;14.08;78.29;101841.59;4901873;29;20506;-42
2021/06/24 04:35:37;;;;;;;24.67;15.15;;;;;;;14.06;77.98;101836.34;4908288;29;20135;-44
2021/06/24 04:38:04;;;;;;;22.17;15.00;;;;;;;13.98;78.32;101840.84;4913721;29;20066;-43
2021/06/24 04:40:31;;;;;;;27.52;15.50;;;;;;;14.00;77.92;101832.97;4909823;29;20078;-43
2021/06/24 04:42:58;;;;;;;22.52;16.25;;;;;;;14.00;77.96;101830.19;4912798;29;20054;-44
2021/06/24 04:45:29;;;;;;;25.13;15.05;;;;;;;13.93;77.93;101838.28;4909761;29;20045;-43
2021/06/24 04:47:57;;;;;;;35.05;17.48;;;;;;;13.90;78.22;101841.75;4907414;29;20084;-42
2021/06/24 04:50:24;;;;;;;28.02;15.70;;;;;;;13.93;78.02;101835.50;4907857;29;20159;-42
2021/06/24 04:52:51;;;;;;;24.10;17.00;;;;;;;13.90;78.35;101838.94;4906002;29;20620;-42
2021/06/24 04:55:18;;;;;;;25.33;15.20;;;;;;;13.90;78.25;101844.53;4912933;29;20465;-43
2021/06/24 04:57:45;;;;;;;27.17;16.70;;;;;;;13.97;78.28;101836.44;4915330;29;20050;-42
2021/06/24 05:00:13;;;;;;;27.98;16.77;;;;;;;13.99;78.39;101834.13;4911101;29;20068;-42
2021/06/24 05:02:40;;;;;;;26.40;16.92;;;;;;;13.94;78.33;101839.09;4915323;29;20040;-42
2021/06/24 05:05:08;;;;;;;23.77;15.15;;;;;;;13.88;78.31;101846.84;4902582;29;20132;-46
2021/06/24 05:07:36;;;;;;;27.48;15.95;;;;;;;13.90;78.05;101840.91;4909042;29;20522;-42
2021/06/24 05:10:04;;;;;;;26.33;16.15;;;;;;;13.94;78.21;101850.22;4903883;29;20518;-42
2021/06/24 05:12:31;;;;;;;28.63;15.95;;;;;;;13.98;78.25;101849.19;4913289;29;20090;-42
2021/06/24 05:15:01;;;;;;;21.65;15.45;;;;;;;14.07;78.14;101843.56;4911092;29;20562;-44
2021/06/24 05:17:28;;;;;;;28.67;17.85;;;;;;;14.06;78.00;101855.06;4898355;29;20787;-42
2021/06/24 05:19:57;;;;;;;23.10;16.95;;;;;;;14.04;77.91;101856.19;4908035;29;20045;-44
2021/06/24 05:22:25;;;;;;;25.02;18.25;;;;;;;14.02;77.52;101861.28;4897733;29;20447;-42
2021/06/24 05:24:53;;;;;;;29.35;19.25;;;;;;;13.96;77.58;101864.63;4910027;29;20505;-43
2021/06/24 05:27:19;;;;;;;27.27;17.55;;;;;;;13.92;77.74;101864.50;4908914;29;20079;-43
2021/06/24 05:29:46;;;;;;;27.67;17.42;;;;;;;13.92;77.60;101858.13;4915844;29;20052;-43
2021/06/24 05:32:13;;;;;;;26.92;15.88;;;;;;;13.89;77.77;101854.03;4911554;29;20048;-43
2021/06/24 05:34:40;;;;;;;25.42;17.40;;;;;;;13.82;77.58;101859.31;4909502;29;20075;-42
2021/06/24 05:37:06;;;;;;;32.50;18.48;;;;;;;13.74;77.46;101851.84;4908365;29;20127;-44
2021/06/24 05:39:33;;;;;;;27.33;16.45;;;;;;;13.75;77.71;101859.06;4913842;29;20490;-42
2021/06/24 05:42:00;;;;;;;27.20;19.55;;;;;;;13.81;77.69;101852.16;4912536;29;20552;-42
2021/06/24 05:44:28;;;;;;;30.33;19.13;;;;;;;13.91;77.69;101851.72;4916947;29;20056;-42
2021/06/24 05:46:55;;;;;;;26.63;18.48;;;;;;;14.03;77.46;101845.41;4905820;29;20116;-42
2021/06/24 05:49:22;;;;;;;34.55;18.95;;;;;;;14.04;77.43;101856.19;4909385;29;20044;-42
2021/06/24 05:51:49;;;;;;;35.47;18.33;;;;;;;14.10;77.16;101853.19;4901944;29;20052;-43
2021/06/24 05:54:17;;;;;;;34.42;20.65;;;;;;;13.97;77.09;101853.16;4910998;29;20080;-43
2021/06/24 05:56:44;;;;;;;31.52;20.58;;;;;;;13.85;77.42;101850.31;4908257;29;20402;-42
2021/06/24 05:59:11;;;;;;;32.22;19.92;;;;;;;13.83;77.18;101860.97;4906347;29;20448;-43
2021/06/24 06:01:42;;;;;;;34.80;20.48;;;;;;;13.77;77.32;101853.16;4911017;29;20099;-42
2021/06/24 06:04:10;;;;;;;30.80;19.20;;;;;;;13.76;77.34;101854.31;4909279;29;20376;-43
2021/06/24 06:06:38;;;;;;;32.10;19.42;;;;;;;13.76;77.24;101849.56;4909765;29;20127;-42
2021/06/24 06:09:05;;;;;;;29.13;17.73;;;;;;;13.70;77.34;101850.94;4905625;29;20490;-42
2021/06/24 06:11:33;;;;;;;27.00;18.00;;;;;;;13.72;77.52;101851.38;4908526;29;20086;-43
2021/06/24 06:14:00;;;;;;;27.30;17.70;;;;;;;13.75;76.71;101847.94;4903485;29;20059;-42
2021/06/24 06:16:27;;;;;;;28.88;18.15;;;;;;;13.81;77.07;101846.59;4910700;29;20072;-44
2021/06/24 06:18:56;;;;;;;25.67;17.55;;;;;;;13.84;76.73;101845.09;4913137;29;20096;-43
2021/06/24 06:21:24;;;;;;;25.58;16.23;;;;;;;13.81;77.06;101838.22;4917734;29;20056;-42
2021/06/24 06:23:51;;;;;;;29.50;18.55;;;;;;;13.72;77.11;101837.47;4913496;29;20072;-43
2021/06/24 06:26:17;;;;;;;31.80;17.70;;;;;;;13.73;76.81;101838.28;4908681;29;20054;-44
2021/06/24 06:28:44;;;;;;;26.90;16.58;;;;;;;13.69;76.78;101835.38;4906471;29;20052;-44
2021/06/24 06:31:11;;;;;;;27.42;16.92;;;;;;;13.65;76.90;101831.66;4905899;29;20047;-44
2021/06/24 06:33:38;;;;;;;29.25;16.77;;;;;;;13.64;76.77;101848.66;4917624;29;20537;-43
2021/06/24 06:36:05;;;;;;;24.90;16.20;;;;;;;13.71;76.64;101835.88;4902792;29;20514;-42
2021/06/24 06:38:32;;;;;;;25.33;16.38;;;;;;;13.75;76.49;101839.59;4910342;29;20080;-42
2021/06/24 06:40:59;;;;;;;25.60;15.43;;;;;;;13.79;76.20;101834.94;4913226;29;20043;-42
2021/06/24 06:43:26;;;;;;;31.63;16.70;;;;;;;13.86;76.13;101824.09;4913783;29;20079;-42
2021/06/24 06:45:53;;;;;;;25.98;15.35;;;;;;;14.03;76.18;101829.50;4914537;29;20135;-43
2021/06/24 06:48:20;;;;;;;28.05;15.65;;;;;;;14.17;75.94;101817.25;4905087;29;20046;-44
2021/06/24 06:50:48;;;;;;;29.88;15.52;;;;;;;14.41;75.77;101815.38;4904357;29;20072;-42
2021/06/24 06:53:16;;;;;;;26.17;14.85;;;;;;;14.55;75.42;101813.09;4906629;29;20585;-45
2021/06/24 06:55:43;;;;;;;22.30;15.57;;;;;;;14.56;74.94;101811.91;4907162;29;20143;-43
2021/06/24 06:58:10;;;;;;;27.00;16.52;;;;;;;14.51;74.37;101809.34;4906292;29;20506;-42
2021/06/24 07:00:37;;;;;;;26.23;15.85;;;;;;;14.41;74.46;101812.59;4904492;29;20044;-43
2021/06/24 07:03:04;;;;;;;29.25;18.73;;;;;;;14.42;74.57;101807.84;4904025;29;20502;-44
2021/06/24 07:05:32;;;;;;;25.30;15.98;;;;;;;14.37;74.86;101810.84;4895316;29;20045;-47
2021/06/24 07:07:59;;;;;;;23.17;14.38;;;;;;;14.35;74.62;101807.59;4896053;29;20043;-43
2021/06/24 07:10:26;;;;;;;23.83;12.98;;;;;;;14.35;74.61;101807.59;4896147;29;20491;-42
2021/06/24 07:12:53;;;;;;;19.55;12.70;;;;;;;14.42;74.88;101803.09;4896135;29;20406;-44
2021/06/24 07:15:21;;;;;;;20.05;13.45;;;;;;;14.55;74.90;101789.97;4900241;29;20048;-43
2021/06/24 07:17:48;;;;;;;20.02;12.30;;;;;;;14.64;74.49;101801.81;4894888;29;20059;-42
2021/06/24 07:20:16;;;;;;;17.77;12.00;;;;;;;14.75;74.70;101796.59;4881203;29;20056;-44
2021/06/24 07:22:43;;;;;;;21.88;12.30;;;;;;;14.83;74.43;101802.06;4885556;29;20080;-42
2021/06/24 07:25:13;;;;;;;21.98;11.43;;;;;;;14.92;74.21;101801.94;4884890;29;20111;-42
2021/06/24 07:27:40;;;;;;;15.48;11.23;;;;;;;14.96;74.07;101803.69;4883151;29;20053;-44
2021/06/24 07:30:08;;;;;;;21.35;11.63;;;;;;;15.12;73.96;101799.03;4884994;29;20040;-43
2021/06/24 07:32:35;;;;;;;16.73;10.48;;;;;;;15.38;73.85;101787.47;4881748;29;20041;-43
2021/06/24 07:35:02;;;;;;;17.08;9.57;;;;;;;15.63;73.83;101803.03;4890278;29;20309;-44
2021/06/24 07:37:34;;;;;;;;;;;;;;;15.71;71.67;101798.47;4882019;29;20073;-45
2021/06/24 07:40:00;;;;;;;15.45;8.80;;;;;;;15.60;72.63;101788.94;4889312;29;19927;-46
2021/06/24 07:42:27;;;;;;;18.25;10.05;;;;;;;15.55;72.54;101790.03;4881628;29;20055;-43
2021/06/24 07:44:54;;;;;;;15.90;7.70;;;;;;;15.51;72.40;101796.66;4880272;29;20518;-46
2021/06/24 07:47:21;;;;;;;13.48;8.25;;;;;;;15.48;72.00;101789.00;4879800;29;20380;-45
2021/06/24 07:49:48;;;;;;;8.95;7.10;;;;;;;15.54;71.86;101796.75;4884187;29;20068;-43
2021/06/24 07:52:15;;;;;;;12.70;6.68;;;;;;;15.62;71.57;101792.22;4880284;29;20049;-46
2021/06/24 07:54:43;;;;;;;10.70;7.28;;;;;;;15.70;71.53;101788.47;4882965;29;20074;-45
2021/06/24 07:57:11;;;;;;;10.93;6.68;;;;;;;15.74;71.28;101790.19;4894371;29;20116;-43
2021/06/24 07:59:37;;;;;;;13.70;8.02;;;;;;;15.82;70.93;101778.06;4883698;29;20068;-43
2021/06/24 08:02:05;;;;;;;8.32;6.47;;;;;;;16.06;70.95;101784.69;4879517;29;20060;-45
2021/06/24 08:04:33;;;;;;;16.35;7.22;;;;;;;16.17;70.66;101786.63;4882430;29;20052;-44
2021/06/24 08:07:01;;;;;;;10.05;6.75;;;;;;;16.07;70.16;101789.91;4880837;29;20055;-43
2021/06/24 08:09:28;;;;;;;9.75;5.82;;;;;;;16.02;70.08;101781.78;4881245;29;20167;-48
2021/06/24 08:11:55;;;;;;;8.23;5.32;;;;;;;16.03;69.66;101791.00;4892586;29;20036;-42
2021/06/24 08:14:23;;;;;;;9.23;5.00;;;;;;;16.03;69.81;101785.41;4894923;29;20052;-43
2021/06/24 08:16:51;;;;;;;12.40;5.35;;;;;;;16.32;69.88;101779.41;4893353;29;20064;-43
2021/06/24 08:19:18;;;;;;;11.15;5.13;;;;;;;17.07;70.10;101785.75;4891168;29;20173;-44
2021/06/24 08:21:45;;;;;;;6.13;4.07;;;;;;;17.42;68.91;101785.75;4901743;29;20063;-45
2021/06/24 08:24:13;;;;;;;9.98;4.25;;;;;;;17.45;67.85;101785.81;4896047;29;20083;-45
2021/06/24 08:26:39;;;;;;;9.00;4.53;;;;;;;17.84;67.82;101780.25;4894052;29;20099;-44
2021/06/24 08:29:06;;;;;;;23.17;5.03;;;;;;;18.39;67.09;101776.91;4898573;29;20131;-49
2021/06/24 08:31:33;;;;;;;9.80;3.70;;;;;;;18.48;65.76;101771.88;4883182;29;20922;-46
2021/06/24 08:34:01;;;;;;;9.48;4.32;;;;;;;18.45;64.84;101772.63;4885542;29;20050;-45
2021/06/24 08:36:30;;;;;;;8.30;4.18;;;;;;;18.59;64.88;101766.47;4886795;29;20062;-47
2021/06/24 08:38:57;;;;;;;7.70;4.68;;;;;;;19.11;64.20;101768.50;4893336;29;20051;-50
2021/06/24 08:41:27;;;;;;;8.77;3.65;;;;;;;19.80;63.83;101778.31;4895094;29;20059;-48
2021/06/24 08:43:54;;;;;;;5.93;4.00;;;;;;;20.56;62.66;101782.38;4893923;29;20411;-44
2021/06/24 08:46:22;;;;;;;8.43;4.32;;;;;;;20.85;60.81;101787.03;4897357;29;20414;-51
2021/06/24 08:48:50;;;;;;;8.98;5.13;;;;;;;21.10;58.98;101781.63;4894773;29;20057;-43
2021/06/24 08:51:17;;;;;;;10.02;4.43;;;;;;;21.42;57.99;101782.63;4909744;29;20056;-42
2021/06/24 08:53:48;;;;;;;7.68;3.95;;;;;;;21.43;56.53;101774.97;4897777;29;20129;-42
2021/06/24 08:56:16;;;;;;;7.15;3.75;;;;;;;21.74;55.86;101771.50;4890315;29;20406;-43
2021/06/24 08:58:44;;;;;;;7.15;4.65;;;;;;;22.04;54.76;101760.78;4890542;29;20566;-43
2021/06/24 09:01:11;;;;;;;9.00;4.20;;;;;;;21.98;54.37;101762.34;4897640;29;20044;-43
2021/06/24 09:03:39;;;;;;;5.80;3.72;;;;;;;21.75;53.80;101764.66;4893750;29;20058;-42
2021/06/24 09:06:08;;;;;;;6.90;3.33;;;;;;;21.43;53.81;101761.72;4888617;29;20136;-42
2021/06/24 09:08:40;;;;;;;7.82;3.72;;;;;;;21.53;53.64;101760.13;4892350;29;20123;-43
2021/06/24 09:11:07;;;;;;;7.72;3.28;;;;;;;21.75;53.77;101757.03;4885011;29;20079;-41
2021/06/24 09:13:34;;;;;;;7.13;3.65;;;;;;;22.14;53.46;101748.69;4896053;29;20132;-43
2021/06/24 09:16:18;;;;;;;8.95;3.70;;;;;;;22.13;51.71;101744.28;4890930;29;20044;-42
2021/06/24 09:18:45;;;;;;;6.10;3.35;;;;;;;21.99;53.25;101746.25;4898256;29;20455;-43
2021/06/24 09:21:20;;;;;;;5.70;4.07;;;;;;;21.48;53.32;101746.44;4889614;29;20068;-43
2021/06/24 09:23:49;;;;;;;9.15;4.28;;;;;;;21.13;54.00;101744.22;4894925;29;20056;-42
2021/06/24 09:26:17;;;;;;;7.18;4.10;;;;;;;21.38;54.07;101742.38;4892731;29;20040;-41
2021/06/24 09:28:51;;;;;;;8.57;4.75;;;;;;;21.49;53.68;101748.06;4892447;29;20076;-46
2021/06/24 09:31:29;;;;;;;6.38;3.75;;;;;;;21.68;53.19;101744.91;4894866;29;20394;-43
2021/06/24 09:34:05;;;;;;;6.32;4.35;;;;;;;21.67;53.19;101743.28;4892606;29;20673;-44
2021/06/24 09:36:35;;;;;;;9.88;4.40;;;;;;;21.89;51.93;101736.56;4894721;29;20055;-42
2021/06/24 09:39:09;;;;;;;9.48;4.72;;;;;;;21.85;52.25;101735.69;4886006;29;20188;-48
2021/06/24 09:41:37;;;;;;;8.70;3.17;;;;;;;22.25;52.34;101724.13;4894243;29;20569;-44
2021/06/24 09:44:18;;;;;;;6.80;3.28;;;;;;;22.57;51.57;101726.16;4892837;29;20049;-43
2021/06/24 09:46:45;;;;;;;7.50;3.65;;;;;;;22.83;51.37;101725.78;4895523;29;20053;-45
2021/06/24 09:49:33;;;;;;;;;;;;;;;23.01;51.10;101726.53;4900705;29;20049;-42
2021/06/24 09:52:02;;;;;;;5.32;3.03;;;;;;;23.20;50.97;101716.81;4893212;29;20381;-43
2021/06/24 09:54:35;;;;;;;5.05;2.60;;;;;;;23.41;49.53;101714.75;4896840;29;20168;-44
2021/06/24 09:57:03;;;;;;;6.63;3.10;;;;;;;23.47;49.42;101715.97;4897136;29;20060;-43
2021/06/24 09:59:32;;;;;;;7.35;3.80;;;;;;;23.70;49.21;101717.44;4899735;29;20044;-42
2021/06/24 10:02:09;;;;;;;6.32;2.85;;;;;;;23.97;48.39;101716.50;4891183;29;20444;-42
2021/06/24 10:04:39;;;;;;;4.10;2.85;;;;;;;24.09;48.43;101721.69;4909715;29;20048;-43
2021/06/24 10:07:12;;;;;;;3.83;2.45;;;;;;;24.10;48.01;101726.16;4904985;29;20100;-42
2021/06/24 10:09:41;;;;;;;8.77;3.22;;;;;;;24.12;48.23;101717.22;4895366;29;20036;-44
2021/06/24 10:12:19;;;;;;;4.82;3.45;;;;;;;23.95;48.06;101712.47;4902446;29;20104;-43
2021/06/24 10:14:47;;;;;;;6.00;3.20;;;;;;;23.92;48.24;101713.31;4898824;29;20079;-42
2021/06/24 10:17:14;;;;;;;4.78;2.95;;;;;;;24.06;48.35;101716.06;4894148;29;20488;-42
2021/06/24 10:19:43;;;;;;;4.13;2.78;;;;;;;24.26;47.86;101711.47;4907345;29;20048;-42
2021/06/24 10:22:15;;;;;;;3.85;2.63;;;;;;;24.41;47.40;101712.19;4902720;29;20134;-43
2021/06/24 10:25:04;;;;;;;8.32;2.97;;;;;;;24.30;46.86;101700.16;4897376;29;20052;-48
2021/06/24 10:27:34;;;;;;;3.50;2.92;;;;;;;24.34;47.97;101712.22;4901298;29;20506;-45
2021/06/24 10:30:13;;;;;;;5.00;3.43;;;;;;;24.45;47.80;101710.94;4901308;29;20044;-43
2021/06/24 10:32:42;;;;;;;5.47;2.90;;;;;;;24.40;48.19;101700.06;4893238;29;20495;-43
2021/06/24 10:35:30;;;;;;;4.55;3.40;;;;;;;24.38;47.57;101705.34;4902924;29;20083;-43
2021/06/24 10:37:59;;;;;;;7.97;3.10;;;;;;;24.03;48.17;101709.19;4894240;29;20032;-42
2021/06/24 10:40:33;;;;;;;5.05;2.97;;;;;;;23.75;48.47;101698.03;4906476;29;20048;-44
2021/06/24 10:43:03;;;;;;;7.65;4.45;;;;;;;23.76;48.80;101705.31;4907083;29;20091;-44
2021/06/24 10:45:30;;;;;;;4.88;2.90;;;;;;;23.75;49.20;101700.88;4908808;29;20499;-42
2021/06/24 10:47:58;;;;;;;7.57;4.03;;;;;;;23.52;49.39;101701.41;4903943;29;20107;-41
2021/06/24 10:50:36;;;;;;;4.88;3.40;;;;;;;23.46;49.51;101694.53;4902127;29;20048;-43
2021/06/24 10:53:03;;;;;;;4.90;3.10;;;;;;;23.46;49.65;101690.91;4897769;29;20402;-47
2021/06/24 10:55:39;;;;;;;5.18;2.83;;;;;;;23.52;49.68;101701.41;4910427;29;20040;-45
2021/06/24 10:58:18;;;;;;;7.05;2.90;;;;;;;23.51;49.73;101696.94;4908341;29;20135;-43
2021/06/24 11:00:50;;;;;;;5.35;2.35;;;;;;;23.48;50.50;101688.50;4908701;29;20048;-47
2021/06/24 11:03:24;;;;;;;3.90;2.40;;;;;;;23.64;50.63;101683.97;4894235;29;20047;-44
2021/06/24 11:05:53;;;;;;;7.30;3.20;;;;;;;23.74;50.70;101687.16;4906508;29;20131;-43
2021/06/24 11:08:30;;;;;;;4.72;2.55;;;;;;;23.75;50.26;101683.91;4896249;29;20048;-46
2021/06/24 11:10:57;;;;;;;4.50;2.60;;;;;;;23.64;51.01;101675.47;4896599;29;20095;-43
2021/06/24 11:13:39;;;;;;;4.43;2.63;;;;;;;23.76;50.71;101676.22;4901210;29;20053;-44
2021/06/24 11:16:10;;;;;;;4.80;3.22;;;;;;;23.60;51.13;101674.69;4874633;29;20087;-46
2021/06/24 11:18:36;;;;;;;5.55;2.90;;;;;;;23.40;51.41;101676.44;4901122;29;20091;-43
2021/06/24 11:21:18;;;;;;;4.88;2.58;;;;;;;23.26;51.58;101669.97;4897780;29;20132;-47
2021/06/24 11:23:46;;;;;;;;;;;;;;;23.08;51.82;101670.06;4899516;29;20130;-45